Aérodrome :
LOGIN :

S'inscrire | Disclaimer

   EN    FR    IT 

 










Légende :    VFR   VFR Marginal   IFR   IFR Intensif   IFR Très Intensif
Visi : 
Plafond : 
>= 8 km
>= 3000ft
5 à 8 km
1000 à 3000 ft
1500m à 5 km
500 à 1000 ft
800 à 1500m
200 à 500 ft
< 800m
< 200 ft
Symboles :   Orages  Brouillard  Fortes neiges  Fortes précipitations  Vent > 20 kt
SIGMETs :   Divers  Orages  Givrage  Turbulence  Onde Orograph.  Cendres Volcan.






- Altitude de l'aérodrome : 33 ft
- Code IATA : PLQ


EYPA - Palanga

DERNIER METAR :
  • 032020Z AUTO 28009KT 230V320 9999 OVC052/// 04/00 Q1007

METARs EXPIRÉS :
  • 031950Z AUTO 28009KT 230V330 9999 FEW017/// BKN058/// 04/01 Q1007
  • 031920Z AUTO 27009KT 230V320 9999 FEW015/// FEW018/// BKN062/// 04/01 Q1006
  • 031850Z AUTO 27008KT 230V320 9999 FEW020/// BKN077/// BKN120/// 05/01 Q1006
  • 031820Z AUTO VRB08KT 9999 BKN130/// 04/01 Q1005
  • 031750Z AUTO 27008KT 210V320 9999 BKN170/// 04/01 Q1005

TAF TAF EYPA
Valide du 03 à 18h jusqu'au 04 à 18h UTC


031706Z 0318/0418 27014G24KT 9000 SCT025
TEMPO 0318/0324 5000 SHRASN SCT005 BKN015CB
PROB40
TEMPO 0318/0324 1000 TSRASN BKN005 BKN015CB
TEMPO 0400/0406 SCT015CB



MET'MAP, la Météo Aéronautique d'un coup d'oeil ! - Copyright ORBIFLY Décembre 2007 - Disclaimer

ORBIFLY MET'MAP TEAM :

Programmation & Développement : Alexandra Zaïnal
Sur une idée originale de : Baudouin d'Aumeries
Assistance à la programmation : Marc-Olivier Méhu
Soutien technique & logistique : Manuel Goepfert

Contact : metmap@orbifly.com




SOURCES & CREDITS :

   NOAA